Terminal Aerodrome Forecast
Issued by NWS Dodge City, KS

Home | Current Version | Previous Version | Graphics & Text | Print | Product List | Glossary Off
Versions: 1 2 3 4 5 6 7 8 9 10 11 12 13 14 15 16 17 18 19 20 21 22 23 24 25 26 27 28 29 30 31 32 33 34 35 36

000
FTUS43 KDDC 171720
TAFDDC
TAF
KDDC 171720Z 1718/1818 15013G20KT P6SM BKN150
      TEMPO 1722/1724 BKN020
     FM180000 12010KT P6SM OVC007
      TEMPO 1800/1803 P6SM -RASN OVC003
     FM180300 11010KT 2SM -SN OVC003=

USA.gov is the U.S. government's official web portal to all federal, state and local government web resources and services.